Terminal Aerodrome Forecast
Issued by NWS Sterling, VA

Current Version | Previous Version | Graphics & Text | Print | Product List | Glossary Off
Versions: 1 2 3 4 5 6 7 8 9 10 11 12 13 14 15 16 17 18 19 20 21 22

898
FTUS41 KLWX 271722
TAFIAD
TAF
KIAD 271722Z 2718/2824 20006KT P6SM BKN030
     FM272100 22004KT P6SM VCTS BKN050CB BKN150
     FM280400 VRB03KT P6SM BKN130
     FM281600 24004KT P6SM OVC050
     FM281800 17005KT 5SM -SHRA OVC050
     FM282100 11005KT 5SM SHRA OVC020=

USA.gov is the U.S. government's official web portal to all federal, state and local government web resources and services.